.
WxDataArchive / Data Records for 2006-01-24
2006-01-23 January 2006 2006-01-25

Data Records for Tuesday, 24 January 2006

Time	Temp	Chill	HIndex	Humid	Dewpt	 Wind 	HiWind	WindDir	Rain 	Barom 
-----	----	-----	------	-----	-----	------	------	-------	-----	----- 
00:00	25.7	25.7	25.7	89	22.9	1	3	248	0.00	29.999 
00:05	25.7	25.7	25.7	90	23.2	1	5	248	0.00	29.999 
00:10	25.7	25.7	25.7	90	23.2	2	4	248	0.00	29.999 
00:15	25.7	25.7	25.7	89	22.9	2	5	248	0.00	29.990 
00:20	25.7	25.7	25.7	90	23.2	2	5	248	0.00	29.990 
00:25	25.8	25.8	25.8	90	23.3	2	4	248	0.00	29.990 
00:30	25.8	25.8	25.8	90	23.3	2	4	248	0.00	29.985 
00:35	25.8	25.8	25.8	90	23.3	2	4	248	0.00	29.985 
00:40	25.8	25.8	25.8	89	23.0	2	5	248	0.00	29.985 
00:45	26.0	26.0	26.0	89	23.2	2	4	248	0.00	29.982 
00:50	26.0	26.0	26.0	89	23.2	3	9	248	0.00	29.982 
00:55	26.1	26.1	26.1	88	23.0	3	9	248	0.00	29.982 
01:00	26.1	26.1	26.1	88	23.0	3	7	248	0.00	29.970 
01:05	26.1	26.1	26.1	88	23.0	2	4	248	0.00	29.970 
01:10	26.0	26.0	26.0	88	22.9	3	5	248	0.00	29.970 
01:15	26.0	26.0	26.0	88	22.9	3	7	248	0.00	29.952 
01:20	26.1	26.1	26.1	88	23.0	3	7	248	0.00	29.952 
01:25	26.1	26.1	26.1	88	23.0	3	6	248	0.00	29.952 
01:30	26.1	26.1	26.1	87	22.8	2	6	248	0.00	29.949 
01:35	26.1	26.1	26.1	87	22.8	3	6	248	0.00	29.949 
01:40	26.3	26.3	26.3	87	23.0	3	8	248	0.00	29.949 
01:45	26.3	26.3	26.3	86	22.7	3	9	248	0.00	29.938 
01:50	26.4	26.4	26.4	86	22.8	3	5	248	0.00	29.938 
01:55	26.4	26.4	26.4	85	22.5	3	7	248	0.00	29.938 
02:00	26.6	26.6	26.6	85	22.7	3	7	248	0.00	29.928 
02:05	26.6	26.6	26.6	84	22.4	2	6	248	0.00	29.928 
02:10	26.7	26.7	26.7	84	22.5	3	9	248	0.00	29.928 
02:15	26.9	26.9	26.9	83	22.4	3	7	248	0.00	29.919 
02:20	26.9	26.9	26.9	83	22.4	3	6	248	0.00	29.919 
02:25	26.9	26.9	26.9	82	22.2	3	6	248	0.00	29.919 
02:30	27.0	27.0	27.0	82	22.3	3	6	248	0.00	29.913 
02:35	27.0	27.0	27.0	82	22.3	2	6	248	0.00	29.913 
02:40	27.0	27.0	27.0	81	22.0	3	6	248	0.00	29.913 
02:45	27.2	27.2	27.2	80	21.9	2	7	248	0.00	29.903 
02:50	27.3	27.3	27.3	80	22.0	3	7	248	0.00	29.903 
02:55	27.5	27.5	27.5	78	21.6	3	6	248	0.00	29.903 
03:00	27.8	27.8	27.8	77	21.5	3	6	248	0.00	29.899 
03:05	27.9	23.3	27.9	76	21.3	4	7	248	0.00	29.899 
03:10	28.1	28.1	28.1	76	21.5	3	9	248	0.00	29.899 
03:15	28.2	28.2	28.2	76	21.6	3	7	248	0.00	29.883 
03:20	28.2	28.2	28.2	76	21.6	3	7	248	0.00	29.883 
03:25	28.4	28.4	28.4	75	21.5	3	12	248	0.00	29.883 
03:30	28.5	28.5	28.5	75	21.6	3	7	270	0.00	29.878 
03:35	28.7	24.3	28.7	74	21.5	4	7	248	0.00	29.878 
03:40	29.0	24.6	29.0	73	21.4	4	9	248	0.00	29.878 
03:45	29.1	24.7	29.1	73	21.5	4	8	248	0.00	29.868 
03:50	29.3	25.0	29.3	72	21.4	4	11	248	0.00	29.868 
03:55	29.4	25.1	29.4	71	21.2	4	12	248	0.00	29.868 
04:00	29.5	25.2	29.5	71	21.3	4	9	248	0.00	29.855 
04:05	29.7	25.4	29.7	71	21.5	4	9	248	0.00	29.855 
04:10	29.8	25.5	29.8	70	21.2	4	13	248	0.00	29.855 
04:15	30.0	25.8	30.0	69	21.1	4	10	248	0.00	29.851 
04:20	30.1	24.8	30.1	69	21.2	5	10	248	0.00	29.851 
04:25	30.1	25.9	30.1	69	21.2	4	9	248	0.00	29.851 
04:30	30.3	26.1	30.3	68	21.0	4	10	248	0.00	29.836 
04:35	30.4	26.2	30.4	68	21.1	4	9	248	0.00	29.836 
04:40	30.4	26.2	30.4	68	21.1	4	10	248	0.00	29.836 
04:45	30.6	25.4	30.6	67	21.0	5	12	248	0.00	29.829 
04:50	30.6	26.5	30.6	67	21.0	4	9	248	0.00	29.829 
04:55	30.6	25.4	30.6	67	21.0	5	14	248	0.00	29.829 
05:00	30.7	30.7	30.7	67	21.1	3	11	248	0.00	29.816 
05:05	30.7	26.6	30.7	67	21.1	4	12	270	0.00	29.816 
05:10	30.9	26.8	30.9	66	20.9	4	11	248	0.00	29.816 
05:15	31.0	26.9	31.0	66	21.0	4	7	248	0.00	29.809 
05:20	31.2	26.1	31.2	66	21.2	5	11	248	0.00	29.809 
05:25	31.3	26.3	31.3	66	21.3	5	12	248	0.00	29.809 
05:30	31.3	27.3	31.3	67	21.6	4	10	248	0.00	29.809 
05:35	31.5	25.6	31.5	66	21.5	6	14	248	0.00	29.809 
05:40	31.5	26.5	31.5	67	21.8	5	11	270	0.00	29.809 
05:45	31.5	27.5	31.5	67	21.8	4	11	270	0.00	29.789 
05:50	31.5	27.5	31.5	68	22.2	4	11	248	0.00	29.789 
05:55	31.5	26.5	31.5	68	22.2	5	12	248	0.00	29.789 
06:00	31.5	27.5	31.5	68	22.2	4	10	248	0.00	29.783 
06:05	31.5	26.5	31.5	69	22.5	5	13	248	0.00	29.783 
06:10	31.5	26.5	31.5	69	22.5	5	11	248	0.00	29.783 
06:15	31.5	26.5	31.5	69	22.5	5	12	248	0.00	29.774 
06:20	31.3	26.3	31.3	70	22.7	5	14	248	0.00	29.774 
06:25	31.3	27.3	31.3	70	22.7	4	9	248	0.00	29.774 
06:30	31.2	27.2	31.2	70	22.6	4	11	248	0.00	29.763 
06:35	31.0	26.9	31.0	71	22.7	4	9	248	0.00	29.763 
06:40	31.0	26.9	31.0	71	22.7	4	12	248	0.00	29.763 
06:45	30.9	30.9	30.9	71	22.6	3	10	248	0.00	29.757 
06:50	30.9	26.8	30.9	72	23.0	4	10	270	0.00	29.757 
06:55	30.7	26.6	30.7	72	22.8	4	7	248	0.00	29.757 
07:00	30.6	30.6	30.6	73	23.0	3	6	248	0.00	29.747 
07:05	30.6	26.5	30.6	73	23.0	4	9	248	0.00	29.747 
07:10	30.6	26.5	30.6	73	23.0	4	10	248	0.00	29.747 
07:15	30.7	26.6	30.7	73	23.1	4	10	248	0.00	29.747 
07:20	30.7	26.6	30.7	73	23.1	4	10	248	0.00	29.747 
07:25	30.7	26.6	30.7	73	23.1	4	9	270	0.00	29.747 
07:30	30.7	26.6	30.7	74	23.4	4	12	248	0.00	29.738 
07:35	30.7	26.6	30.7	74	23.4	4	10	248	0.00	29.738 
07:40	30.9	25.8	30.9	75	23.9	5	10	248	0.00	29.738 
07:45	31.0	26.9	31.0	75	24.0	4	9	248	0.00	29.732 
07:50	31.3	27.3	31.3	75	24.3	4	13	248	0.00	29.732 
07:55	31.5	27.5	31.5	75	24.5	4	12	248	0.00	29.732 
08:00	31.6	26.6	31.6	75	24.6	5	15	248	0.00	29.730 
08:05	31.8	26.8	31.8	75	24.8	5	11	270	0.00	29.730 
08:10	31.9	28.0	31.9	75	24.9	4	11	270	0.00	29.730 
08:15	31.9	27.0	31.9	75	24.9	5	11	270	0.00	29.714 
08:20	32.1	27.2	32.1	76	25.4	5	11	270	0.00	29.714 
08:25	32.1	27.2	32.1	76	25.4	5	12	248	0.00	29.714 
08:30	32.2	26.5	32.2	76	25.5	6	13	270	0.00	29.719 
08:35	32.2	26.5	32.2	76	25.5	6	14	248	0.00	29.719 
08:40	32.4	27.5	32.4	77	26.0	5	10	270	0.00	29.719 
08:45	32.5	28.7	32.5	77	26.1	4	9	270	0.00	29.715 
08:50	32.7	27.9	32.7	77	26.3	5	11	248	0.00	29.715 
08:55	32.8	27.2	32.8	77	26.4	6	13	270	0.00	29.715 
09:00	33.1	28.4	33.1	77	26.7	5	12	270	0.00	29.715 
09:05	33.1	33.1	33.1	77	26.7	3	8	270	0.00	29.715 
09:10	33.2	27.7	33.2	77	26.8	6	16	270	0.00	29.715 
09:15	33.4	29.7	33.4	77	27.0	4	10	270	0.00	29.711 
09:20	33.8	28.4	33.8	77	27.4	6	17	248	0.00	29.711 
09:25	34.6	31.1	34.6	75	27.5	4	11	248	0.00	29.711 
09:30	34.6	30.1	34.6	75	27.5	5	12	270	0.00	29.699 
09:35	34.6	29.3	34.6	75	27.5	6	14	248	0.00	29.699 
09:40	34.7	28.8	34.7	75	27.6	7	17	248	0.00	29.699 
09:45	34.7	29.4	34.7	75	27.6	6	15	270	0.00	29.693 
09:50	34.9	29.0	34.9	75	27.8	7	15	270	0.00	29.693 
09:55	35.0	29.1	35.0	75	27.9	7	14	248	0.00	29.693 
10:00	35.2	29.4	35.2	75	28.1	7	18	270	0.00	29.698 
10:05	35.0	29.1	35.0	76	28.2	7	17	270	0.00	29.698 
10:10	34.9	29.7	34.9	77	28.4	6	15	270	0.00	29.698 
10:15	34.7	29.4	34.7	77	28.2	6	12	248	0.00	29.696 
10:20	34.7	29.4	34.7	77	28.2	6	18	270	0.00	29.696 
10:25	34.7	28.1	34.7	78	28.6	8	20	270	0.00	29.696 
10:30	34.7	28.8	34.7	79	28.9	7	17	248	0.00	29.687 
10:35	34.6	28.6	34.6	79	28.8	7	16	248	0.00	29.687 
10:40	34.6	28.6	34.6	79	28.8	7	16	270	0.00	29.687 
10:45	34.7	29.4	34.7	79	28.9	6	13	270	0.00	29.687 
10:50	34.9	29.0	34.9	78	28.7	7	18	270	0.00	29.687 
10:55	35.0	29.8	35.0	78	28.8	6	15	270	0.00	29.687 
11:00	35.2	31.8	35.2	78	29.0	4	11	270	0.00	29.680 
11:05	35.5	30.4	35.5	77	29.0	6	14	270	0.00	29.680 
11:10	35.8	30.8	35.8	77	29.3	6	15	248	0.00	29.680 
11:15	35.8	30.1	35.8	76	29.0	7	15	248	0.00	29.665 
11:20	35.8	30.8	35.8	76	29.0	6	14	270	0.00	29.665 
11:25	35.9	31.7	35.9	77	29.4	5	15	270	0.00	29.665 
11:30	35.9	30.9	35.9	77	29.4	6	15	270	0.00	29.660 
11:35	35.9	31.7	35.9	77	29.4	5	13	270	0.00	29.660 
11:40	35.5	31.2	35.5	81	30.3	5	17	270	0.00	29.660 
11:45	35.5	30.4	35.5	79	29.6	6	13	248	0.00	29.645 
11:50	35.8	31.5	35.8	79	29.9	5	12	248	0.00	29.645 
11:55	35.6	29.8	35.6	80	30.1	7	18	248	0.00	29.645 
12:00	35.2	30.8	35.2	82	30.3	5	11	248	0.00	29.628 
12:05	35.2	30.0	35.2	82	30.3	6	13	270	0.00	29.628 
12:10	35.6	29.2	35.6	81	30.4	8	15	270	0.00	29.628 
12:15	35.9	31.7	35.9	81	30.6	5	12	270	0.00	29.621 
12:20	36.2	31.2	36.2	81	30.9	6	11	248	0.00	29.621 
12:25	36.5	31.6	36.5	81	31.2	6	14	248	0.00	29.621 
12:30	36.8	30.7	36.8	80	31.2	8	20	270	0.00	29.624 
12:35	36.8	31.9	36.8	81	31.5	6	12	248	0.00	29.624 
12:40	36.9	32.8	36.9	81	31.6	5	13	270	0.00	29.624 
12:45	37.3	32.5	37.3	81	32.0	6	12	270	0.00	29.618 
12:50	37.2	31.8	37.2	80	31.6	7	15	248	0.00	29.618 
12:55	37.0	32.2	37.0	80	31.4	6	16	270	0.00	29.618 
13:00	37.2	31.8	37.2	80	31.6	7	14	248	0.00	29.614 
13:05	37.3	32.5	37.3	80	31.7	6	17	270	0.00	29.614 
13:10	37.3	31.9	37.3	79	31.4	7	16	270	0.00	29.614 
13:15	37.3	31.9	37.3	79	31.4	7	14	270	0.00	29.607 
13:20	37.5	31.5	37.5	79	31.6	8	23	270	0.00	29.607 
13:25	37.6	32.9	37.6	79	31.7	6	13	270	0.00	29.607 
13:30	37.6	32.2	37.6	78	31.4	7	21	248	0.00	29.604 
13:35	37.8	33.1	37.8	78	31.6	6	15	270	0.00	29.604 
13:40	37.9	32.6	37.9	77	31.3	7	16	270	0.00	29.604 
13:45	37.9	32.6	37.9	77	31.3	7	16	248	0.00	29.602 
13:50	37.9	32.0	37.9	77	31.3	8	15	270	0.00	29.602 
13:55	38.0	32.7	38.0	75	30.8	7	16	270	0.00	29.602 
14:00	38.2	31.9	38.2	75	31.0	9	16	248	0.00	29.598 
14:05	38.5	34.0	38.5	74	30.9	6	12	270	0.00	29.598 
14:10	38.5	32.8	38.5	74	30.9	8	14	270	0.00	29.598 
14:15	38.6	32.9	38.6	73	30.7	8	21	270	0.00	29.592 
14:20	38.6	32.9	38.6	73	30.7	8	18	270	0.00	29.592 
14:25	38.8	33.7	38.8	73	30.9	7	15	270	0.00	29.592 
14:30	39.1	33.5	39.1	72	30.8	8	19	270	0.00	29.595 
14:35	39.2	34.8	39.2	73	31.3	6	14	270	0.00	29.595 
14:40	39.3	33.2	39.3	71	30.7	9	19	248	0.01	29.595 
14:45	39.3	34.9	39.3	72	31.0	6	13	270	0.00	29.600 
14:50	39.6	35.3	39.6	72	31.3	6	14	270	0.00	29.600 
14:55	39.6	33.6	39.6	72	31.3	9	19	270	0.00	29.600 
15:00	39.9	35.0	39.9	71	31.3	7	18	248	0.00	29.600 
15:05	39.9	35.6	39.9	70	30.9	6	13	270	0.00	29.600 
15:10	40.1	34.7	40.1	69	30.8	8	14	270	0.00	29.600 
15:15	40.2	36.0	40.2	69	30.9	6	15	270	0.00	29.598 
15:20	40.2	35.4	40.2	68	30.5	7	17	270	0.00	29.598 
15:25	40.2	36.0	40.2	69	30.9	6	12	270	0.00	29.598 
15:30	40.1	35.3	40.1	69	30.8	7	16	270	0.00	29.605 
15:35	40.1	35.3	40.1	69	30.8	7	16	270	0.00	29.605 
15:40	40.1	35.9	40.1	68	30.4	6	14	270	0.00	29.605 
15:45	40.1	37.4	40.1	69	30.8	4	11	270	0.00	29.612 
15:50	39.9	35.6	39.9	68	30.2	6	13	270	0.00	29.612 
15:55	39.8	36.2	39.8	69	30.5	5	10	270	0.00	29.612 
16:00	39.6	35.3	39.6	69	30.3	6	12	270	0.00	29.619 
16:05	39.6	34.7	39.6	68	29.9	7	19	270	0.00	29.619 
16:10	39.6	35.3	39.6	69	30.3	6	14	270	0.00	29.619 
16:15	39.5	35.9	39.5	71	30.9	5	11	270	0.00	29.628 
16:20	39.2	36.4	39.2	71	30.6	4	13	270	0.00	29.628 
16:25	39.1	35.4	39.1	73	31.2	5	16	270	0.00	29.628 
16:30	38.9	36.0	38.9	73	31.0	4	13	270	0.00	29.643 
16:35	38.8	35.1	38.8	73	30.9	5	12	270	0.00	29.643 
16:40	38.8	35.9	38.8	71	30.2	4	7	270	0.00	29.643 
16:45	38.8	35.1	38.8	69	29.5	5	10	270	0.00	29.651 
16:50	38.6	34.8	38.6	69	29.3	5	12	270	0.00	29.651 
16:55	38.6	34.8	38.6	69	29.3	5	13	270	0.00	29.651 
17:00	38.6	34.1	38.6	68	29.0	6	20	270	0.00	29.653 
17:05	38.6	34.1	38.6	68	29.0	6	15	270	0.00	29.653 
17:10	38.8	33.7	38.8	67	28.8	7	17	270	0.00	29.653 
17:15	38.8	35.1	38.8	68	29.2	5	19	270	0.00	29.661 
17:20	38.8	35.1	38.8	67	28.8	5	13	270	0.00	29.661 
17:25	38.8	35.1	38.8	68	29.2	5	16	270	0.00	29.661 
17:30	38.5	35.6	38.5	69	29.2	4	12	270	0.00	29.669 
17:35	38.3	33.7	38.3	69	29.0	6	19	270	0.00	29.669 
17:40	38.3	35.4	38.3	69	29.0	4	11	270	0.00	29.669 
17:45	38.5	33.3	38.5	69	29.2	7	17	270	0.00	29.678 
17:50	38.2	34.4	38.2	71	29.6	5	12	270	0.00	29.678 
17:55	38.0	35.0	38.0	71	29.4	4	12	270	0.00	29.678 
18:00	37.8	31.4	37.8	75	30.6	9	20	270	0.00	29.691 
18:05	36.9	32.1	36.9	78	30.7	6	13	270	0.00	29.691 
18:10	36.8	31.9	36.8	78	30.6	6	18	270	0.00	29.691 
18:15	36.6	33.4	36.6	78	30.4	4	8	270	0.00	29.695 
18:20	36.6	32.5	36.6	77	30.1	5	10	270	0.00	29.695 
18:25	36.9	33.7	36.9	76	30.1	4	7	270	0.00	29.695 
18:30	37.2	33.2	37.2	75	30.0	5	10	270	0.00	29.706 
18:35	37.2	34.1	37.2	73	29.4	4	14	270	0.00	29.706 
18:40	37.3	34.2	37.3	74	29.8	4	12	270	0.00	29.706 
18:45	37.3	33.3	37.3	74	29.8	5	15	270	0.00	29.709 
18:50	37.3	33.3	37.3	73	29.5	5	12	270	0.00	29.709 
18:55	37.5	32.8	37.5	72	29.3	6	11	270	0.00	29.709 
19:00	37.5	33.5	37.5	72	29.3	5	12	270	0.00	29.713 
19:05	37.5	34.4	37.5	71	29.0	4	14	270	0.00	29.713 
19:10	37.5	32.8	37.5	71	29.0	6	16	270	0.00	29.713 
19:15	37.5	31.5	37.5	72	29.3	8	19	270	0.00	29.720 
19:20	37.3	32.5	37.3	72	29.1	6	14	270	0.00	29.720 
19:25	37.2	33.2	37.2	73	29.4	5	11	270	0.00	29.720 
19:30	36.9	30.3	36.9	74	29.4	9	19	270	0.00	29.727 
19:35	36.6	31.0	36.6	77	30.1	7	16	270	0.00	29.727 
19:40	36.0	31.0	36.0	79	30.1	6	18	270	0.00	29.727 
19:45	35.8	31.5	35.8	80	30.2	5	11	270	0.00	29.729 
19:50	35.6	31.3	35.6	82	30.7	5	12	270	0.00	29.729 
19:55	35.3	30.2	35.3	83	30.7	6	15	270	0.00	29.729 
20:00	35.2	30.0	35.2	83	30.6	6	17	270	0.00	29.739 
20:05	35.0	31.5	35.0	84	30.7	4	10	270	0.00	29.739 
20:10	34.9	31.4	34.9	84	30.6	4	7	270	0.00	29.739 
20:15	34.7	31.2	34.7	85	30.7	4	11	270	0.00	29.737 
20:20	34.9	29.7	34.9	84	30.6	6	13	270	0.00	29.737 
20:25	35.0	30.6	35.0	83	30.4	5	13	270	0.00	29.737 
20:30	35.2	30.8	35.2	81	30.0	5	14	270	0.00	29.740 
20:35	35.2	30.8	35.2	80	29.7	5	14	270	0.00	29.740 
20:40	35.3	31.0	35.3	79	29.4	5	12	248	0.00	29.740 
20:45	35.8	31.5	35.8	78	29.6	5	10	270	0.00	29.742 
20:50	35.9	31.7	35.9	77	29.4	5	11	270	0.00	29.742 
20:55	36.0	31.0	36.0	76	29.2	6	22	270	0.00	29.742 
21:00	36.0	31.0	36.0	76	29.2	6	17	270	0.00	29.745 
21:05	36.2	31.2	36.2	75	29.1	6	17	270	0.00	29.745 
21:10	36.2	32.0	36.2	75	29.1	5	15	270	0.00	29.745 
21:15	36.2	30.0	36.2	75	29.1	8	19	270	0.00	29.745 
21:20	36.2	31.2	36.2	75	29.1	6	17	270	0.00	29.745 
21:25	36.3	31.4	36.3	75	29.1	6	14	270	0.00	29.745 
21:30	36.3	31.4	36.3	75	29.1	6	15	270	0.00	29.754 
21:35	36.3	30.7	36.3	76	29.5	7	18	270	0.00	29.754 
21:40	36.2	30.6	36.2	76	29.4	7	18	270	0.00	29.754 
21:45	36.0	32.7	36.0	77	29.5	4	6	270	0.00	29.759 
21:50	35.9	31.7	35.9	78	29.7	5	13	270	0.00	29.759 
21:55	35.2	30.8	35.2	83	30.6	5	14	270	0.00	29.759 
22:00	34.7	29.4	34.7	84	30.4	6	14	270	0.00	29.770 
22:05	34.6	31.1	34.6	85	30.6	4	10	270	0.00	29.770 
22:10	33.4	28.7	33.4	88	30.2	5	14	270	0.00	29.770 
22:15	32.7	28.9	32.7	89	29.8	4	10	292	0.00	29.788 
22:20	32.5	28.7	32.5	90	29.9	4	7	270	0.00	29.788 
22:25	32.4	28.5	32.4	91	30.1	4	14	270	0.00	29.788 
22:30	32.4	32.4	32.4	91	30.1	3	7	270	0.00	29.797 
22:35	32.4	32.4	32.4	92	30.3	3	6	270	0.00	29.797 
22:40	32.4	32.4	32.4	92	30.3	2	5	292	0.00	29.797 
22:45	32.4	32.4	32.4	92	30.3	2	4	270	0.00	29.802 
22:50	32.4	32.4	32.4	92	30.3	2	4	270	0.00	29.802 
22:55	32.4	32.4	32.4	91	30.1	3	8	270	0.00	29.802 
23:00	32.5	32.5	32.5	91	30.2	3	5	270	0.00	29.808 
23:05	32.5	32.5	32.5	90	29.9	2	6	270	0.00	29.808 
23:10	32.5	32.5	32.5	90	29.9	3	6	292	0.00	29.808 
23:15	32.5	32.5	32.5	90	29.9	2	4	292	0.00	29.818 
23:20	32.5	32.5	32.5	90	29.9	2	5	315	0.00	29.818 
23:25	32.5	32.5	32.5	89	29.6	2	6	270	0.00	29.818 
23:30	32.5	32.5	32.5	87	29.1	2	7	270	0.00	29.823 
23:35	32.5	32.5	32.5	85	28.5	2	6	292	0.00	29.823 
23:40	32.5	32.5	32.5	84	28.2	2	4	315	0.00	29.823 
23:45	32.5	32.5	32.5	83	27.9	2	7	270	0.00	29.838 
23:50	32.5	28.7	32.5	79	26.7	4	13	292	0.00	29.838 
23:55	32.5	28.7	32.5	77	26.1	4	11	315	0.00	29.838 

CoCoRaHS
IN-AL-39
A2 Web Hosting
Creative Commons License
GoDaddy
Look for:

loaded 2017-10-18 21:53:33 • last modified 2010-11-18 10:43:29
Privacy PolicyDisclaimer
• wx.awcolley.com is powered by PmWiki v.2002016 •
• all content (unless otherwise noted) © 2017 A W Colley